createdAt,value
2023-02-22T00:01:02.968Z,96497.97
2023-02-22T00:03:33.267Z,96496.75
2023-02-22T00:06:04.817Z,96500.78
2023-02-22T00:08:35.594Z,96495.50
2023-02-22T00:11:08.459Z,96495.50
2023-02-22T00:13:37.364Z,96490.69
2023-02-22T00:16:06.840Z,96494.72
2023-02-22T00:18:35.049Z,96493.72
2023-02-22T00:21:03.587Z,96497.16
2023-02-22T00:23:32.756Z,96492.72
2023-02-22T00:26:01.890Z,96492.13
2023-02-22T00:28:31.288Z,96488.06
2023-02-22T00:31:00.202Z,96480.34
2023-02-22T00:33:28.430Z,96482.00
2023-02-22T00:35:56.489Z,96478.56
2023-02-22T00:38:24.853Z,96483.38
2023-02-22T00:40:53.157Z,96478.53
2023-02-22T00:43:21.307Z,96474.50
2023-02-22T00:45:50.709Z,96475.09
2023-02-22T00:48:19.576Z,96475.34
2023-02-22T00:50:49.041Z,96476.50
2023-02-22T00:53:17.571Z,96473.28
2023-02-22T00:55:45.584Z,96466.41
2023-02-22T00:58:13.754Z,96469.66
2023-02-22T01:00:44.130Z,96466.19
2023-02-22T01:03:16.024Z,96476.09
2023-02-22T01:05:44.727Z,96472.44
2023-02-22T01:08:16.548Z,96475.03
2023-02-22T01:10:45.001Z,96462.13
2023-02-22T01:13:14.590Z,96462.53
2023-02-22T01:15:45.246Z,96459.50
2023-02-22T01:18:17.189Z,96460.50
2023-02-22T01:20:47.837Z,96460.72
2023-02-22T01:23:18.470Z,96453.63
2023-02-22T01:25:46.694Z,96452.28
2023-02-22T01:28:15.991Z,96446.00
2023-02-22T01:30:44.178Z,96435.28
2023-02-22T01:33:15.531Z,96444.34
2023-02-22T01:35:46.206Z,96440.53
2023-02-22T01:38:15.192Z,96434.06
2023-02-22T01:40:49.655Z,96434.31
2023-02-22T01:43:22.497Z,96434.25
2023-02-22T01:45:59.039Z,96427.66
2023-02-22T01:48:36.212Z,96426.47
2023-02-22T01:51:10.840Z,96422.38
2023-02-22T01:53:48.472Z,96424.63
2023-02-22T01:56:18.764Z,96408.72
2023-02-22T01:58:51.748Z,96406.69
2023-02-22T02:01:22.993Z,96400.44
2023-02-22T02:03:58.491Z,96409.31
2023-02-22T02:06:28.049Z,96404.66
2023-02-22T02:09:06.709Z,96401.03
2023-02-22T02:11:35.232Z,96396.97
2023-02-22T02:14:03.210Z,96393.53
2023-02-22T02:16:39.896Z,96394.16
2023-02-22T02:19:20.332Z,96388.72
2023-02-22T02:22:25.543Z,96378.44
2023-02-22T02:25:39.314Z,96377.25
2023-02-22T02:29:13.234Z,96381.66
2023-02-22T02:32:25.161Z,96379.41
2023-02-22T02:35:04.319Z,96375.16
2023-02-22T02:37:40.869Z,96377.19
2023-02-22T02:40:21.561Z,96376.00
2023-02-22T02:43:02.023Z,96378.44
2023-02-22T02:45:40.936Z,96369.75
2023-02-22T02:48:14.893Z,96366.75
2023-02-22T02:50:51.178Z,96361.13
2023-02-22T02:53:23.333Z,96366.38
2023-02-22T02:55:51.405Z,96358.91
2023-02-22T02:58:23.309Z,96356.91
2023-02-22T03:00:56.474Z,96355.91
2023-02-22T03:04:00.296Z,96356.66
2023-02-22T03:07:16.527Z,96349.44
2023-02-22T03:10:00.272Z,96351.84
2023-02-22T03:12:39.905Z,96345.59
2023-02-22T03:15:27.043Z,96344.63
2023-02-22T03:18:03.411Z,96341.19
2023-02-22T03:20:44.004Z,96339.78
2023-02-22T03:23:24.743Z,96337.34
2023-02-22T03:25:59.073Z,96337.75
2023-02-22T03:28:29.585Z,96332.94
2023-02-22T03:31:02.999Z,96327.66
2023-02-22T03:33:38.285Z,96315.94
2023-02-22T03:36:14.770Z,96330.06
2023-02-22T03:38:45.710Z,96319.97
2023-02-22T03:41:20.593Z,96324.00
2023-02-22T03:43:51.896Z,96326.81
2023-02-22T03:46:20.415Z,96320.81
2023-02-22T03:48:55.414Z,96319.38
2023-02-22T03:51:25.785Z,96319.19
2023-02-22T03:53:59.218Z,96323.16
2023-02-22T03:56:36.587Z,96324.38
2023-02-22T03:59:07.308Z,96312.72
2023-02-22T04:01:36.386Z,96318.38
2023-02-22T04:04:29.479Z,96319.75
2023-02-22T04:07:02.049Z,96314.34
2023-02-22T04:09:30.957Z,96314.72
2023-02-22T04:11:59.028Z,96317.34
2023-02-22T04:14:29.487Z,96315.34
2023-02-22T04:16:58.982Z,96317.16
2023-02-22T04:19:27.972Z,96314.34
2023-02-22T04:21:56.424Z,96312.28
2023-02-22T04:24:30.425Z,96299.00
2023-02-22T04:26:59.018Z,96313.72
2023-02-22T04:29:27.340Z,96311.50
2023-02-22T04:31:55.963Z,96309.84
2023-02-22T04:34:24.191Z,96309.06
2023-02-22T04:36:52.420Z,96306.03
2023-02-22T04:39:21.196Z,96317.13
2023-02-22T04:41:50.817Z,96307.81
2023-02-22T04:44:19.015Z,96307.22
2023-02-22T04:46:47.485Z,96307.81
2023-02-22T04:49:17.100Z,96307.81
2023-02-22T04:51:46.530Z,96299.16
2023-02-22T04:54:17.192Z,96299.75
2023-02-22T04:56:48.065Z,96300.38
2023-02-22T04:59:17.607Z,96296.56
2023-02-22T05:01:48.121Z,96297.97
2023-02-22T05:04:16.299Z,96292.53
2023-02-22T05:06:44.344Z,96292.94
2023-02-22T05:09:12.364Z,96299.97
2023-02-22T05:11:40.393Z,96294.94
2023-02-22T05:14:08.502Z,96292.50
2023-02-22T05:16:38.583Z,96296.34
2023-02-22T05:19:06.664Z,96295.31
2023-02-22T05:21:34.695Z,96290.69
2023-02-22T05:24:02.856Z,96283.22
2023-02-22T05:26:30.902Z,96286.47
2023-02-22T05:28:58.974Z,96283.03
2023-02-22T05:31:27.036Z,96284.63
2023-02-22T05:33:56.463Z,96282.41
2023-02-22T05:36:24.835Z,96279.81
2023-02-22T05:38:52.876Z,96280.81
2023-02-22T05:41:21.048Z,96285.22
2023-02-22T05:43:49.266Z,96277.97
2023-02-22T05:46:17.372Z,96280.41
2023-02-22T05:48:45.521Z,96281.59
2023-02-22T05:51:15.122Z,96280.41
2023-02-22T05:53:43.548Z,96280.22
2023-02-22T05:56:11.682Z,96281.03
2023-02-22T05:58:39.749Z,96277.22
2023-02-22T06:01:07.763Z,96273.81
2023-02-22T06:03:35.835Z,96269.16
2023-02-22T06:06:05.407Z,96274.84
2023-02-22T06:08:34.810Z,96271.22
2023-02-22T06:11:02.855Z,96274.44
2023-02-22T06:13:30.916Z,96276.88
2023-02-22T06:15:59.080Z,96273.25
2023-02-22T06:18:30.361Z,96268.38
2023-02-22T06:20:58.699Z,96269.00
2023-02-22T06:23:28.180Z,96274.84
2023-02-22T06:25:57.761Z,96278.69
2023-02-22T06:28:26.367Z,96279.88
2023-02-22T06:30:54.435Z,96283.72
2023-02-22T06:33:22.642Z,96287.16
2023-02-22T06:35:50.696Z,96293.41
2023-02-22T06:38:25.737Z,96294.00
2023-02-22T06:40:55.236Z,96292.22
2023-02-22T06:43:25.761Z,96293.41
2023-02-22T06:45:54.548Z,96293.63
2023-02-22T06:48:22.626Z,96296.03
2023-02-22T06:50:51.229Z,96296.81
2023-02-22T06:53:19.523Z,96299.44
2023-02-22T06:55:47.625Z,96301.25
2023-02-22T06:58:16.001Z,96301.47
2023-02-22T07:00:45.396Z,96304.28
2023-02-22T07:03:14.272Z,96304.50
2023-02-22T07:05:42.429Z,96302.06
2023-02-22T07:08:11.425Z,96308.72
2023-02-22T07:10:40.860Z,96305.50
2023-02-22T07:13:09.747Z,96314.38
2023-02-22T07:15:38.207Z,96316.38
2023-02-22T07:18:07.953Z,96311.56
2023-02-22T07:20:36.273Z,96319.22
2023-02-22T07:23:07.561Z,96324.44
2023-02-22T07:25:36.003Z,96327.88
2023-02-22T07:28:04.053Z,96332.31
2023-02-22T07:30:34.502Z,96331.13
2023-02-22T07:33:06.084Z,96332.13
2023-02-22T07:35:40.144Z,96332.94
2023-02-22T07:38:12.501Z,96333.34
2023-02-22T07:40:41.120Z,96338.16
2023-02-22T07:47:44.521Z,96326.28
2023-02-22T07:50:14.359Z,96327.28
2023-02-22T07:52:47.622Z,96328.06
2023-02-22T07:55:17.802Z,96324.47
2023-02-22T07:57:47.644Z,96328.47
2023-02-22T08:00:26.182Z,96328.66
2023-02-22T08:05:49.732Z,96332.28
2023-02-22T08:08:20.008Z,96338.72
2023-02-22T08:10:49.297Z,96327.16
2023-02-22T08:13:18.078Z,96320.66
2023-02-22T08:15:47.386Z,96327.09
2023-02-22T08:18:20.215Z,96320.78
2023-02-22T08:20:50.289Z,96320.16
2023-02-22T08:23:22.458Z,96318.53
2023-02-22T08:25:50.624Z,96325.91
2023-02-22T08:28:23.276Z,96324.44
2023-02-22T08:30:52.105Z,96316.09
2023-02-22T08:33:21.374Z,96319.44
2023-02-22T08:35:51.900Z,96326.88
2023-02-22T08:38:27.441Z,96323.38
2023-02-22T08:40:55.998Z,96324.09
2023-02-22T08:43:24.955Z,96314.63
2023-02-22T08:45:55.528Z,96318.16
2023-02-22T08:48:28.422Z,96322.50
2023-02-22T08:50:56.850Z,96325.66
2023-02-22T08:53:26.496Z,96321.56
2023-02-22T08:58:51.189Z,96321.13
2023-02-22T09:01:31.446Z,96318.13
2023-02-22T09:05:07.592Z,96313.81
2023-02-22T09:07:38.899Z,96316.53
2023-02-22T09:10:09.725Z,96305.63
2023-02-22T09:12:38.386Z,96312.06
2023-02-22T09:15:07.755Z,96307.63
2023-02-22T09:17:37.641Z,96310.56
2023-02-22T09:20:29.410Z,96307.41
2023-02-22T09:23:39.234Z,96306.19
2023-02-22T09:26:23.770Z,96303.09
2023-02-22T09:28:54.115Z,96298.41
2023-02-22T09:31:41.870Z,96303.34
2023-02-22T09:34:45.995Z,96300.47
2023-02-22T09:37:49.732Z,96302.63
2023-02-22T09:40:32.397Z,96292.81
2023-02-22T09:43:25.345Z,96298.06
2023-02-22T09:46:13.960Z,96290.69
2023-02-22T09:48:58.783Z,96301.81
2023-02-22T09:51:35.685Z,96290.88
2023-02-22T09:54:11.030Z,96289.38
2023-02-22T09:56:39.626Z,96288.91
2023-02-22T09:59:12.604Z,96283.47
2023-02-22T10:01:45.914Z,96288.94
2023-02-22T10:04:22.038Z,96290.19
2023-02-22T10:07:06.022Z,96289.81
2023-02-22T10:09:42.521Z,96283.78
2023-02-22T10:12:16.151Z,96282.50
2023-02-22T10:15:15.980Z,96280.50
2023-02-22T10:17:51.212Z,96274.91
2023-02-22T10:20:32.394Z,96274.66
2023-02-22T10:23:12.775Z,96272.19
2023-02-22T10:25:45.069Z,96268.50
2023-02-22T10:28:19.074Z,96271.06
2023-02-22T10:30:54.930Z,96272.59
2023-02-22T10:33:27.396Z,96267.88
2023-02-22T10:35:57.103Z,96267.53
2023-02-22T10:38:28.691Z,96271.53
2023-02-22T10:41:02.968Z,96269.22
2023-02-22T10:43:31.723Z,96265.84
2023-02-22T10:46:04.457Z,96261.84
2023-02-22T10:48:37.626Z,96262.00
2023-02-22T10:51:09.466Z,96254.28
2023-02-22T10:53:39.331Z,96257.28
2023-02-22T10:56:17.341Z,96260.31
2023-02-22T10:58:50.508Z,96261.19
2023-02-22T11:01:28.504Z,96260.13
2023-02-22T11:04:05.081Z,96259.09
2023-02-22T11:06:36.901Z,96255.41
2023-02-22T11:09:16.047Z,96249.13
2023-02-22T11:11:48.130Z,96251.28
2023-02-22T11:14:28.780Z,96247.69
2023-02-22T11:16:59.493Z,96247.19
2023-02-22T11:19:30.072Z,96243.81
2023-02-22T11:22:14.786Z,96241.63
2023-02-22T11:24:51.536Z,96237.22
2023-02-22T11:27:35.290Z,96241.31
2023-02-22T11:30:22.614Z,96230.31
2023-02-22T11:32:58.586Z,96230.72
2023-02-22T11:35:40.900Z,96227.63
2023-02-22T11:38:18.440Z,96221.81
2023-02-22T11:40:47.060Z,96222.00
2023-02-22T11:43:20.246Z,96223.41
2023-02-22T11:46:02.393Z,96218.34
2023-02-22T11:48:36.550Z,96206.63
2023-02-22T11:51:24.334Z,96210.03
2023-02-22T11:54:25.475Z,96204.00
2023-02-22T11:56:58.496Z,96205.56
2023-02-22T11:59:37.521Z,96201.38
2023-02-22T12:02:30.373Z,96201.38
2023-02-22T12:05:20.885Z,96197.91
2023-02-22T12:08:10.702Z,96195.09
2023-02-22T12:11:02.488Z,96194.06
2023-02-22T12:13:55.131Z,96194.13
2023-02-22T12:16:35.455Z,96186.91
2023-02-22T12:19:22.017Z,96194.59
2023-02-22T12:21:57.140Z,96191.81
2023-02-22T12:24:33.310Z,96185.31
2023-02-22T12:27:06.725Z,96186.75
2023-02-22T12:29:42.206Z,96186.22
2023-02-22T12:32:17.459Z,96189.22
2023-02-22T12:34:51.218Z,96184.84
2023-02-22T12:37:25.284Z,96181.94
2023-02-22T12:40:08.343Z,96189.16
2023-02-22T12:42:51.325Z,96184.97
2023-02-22T12:45:40.969Z,96180.28
2023-02-22T12:48:32.277Z,96184.06
2023-02-22T12:51:09.654Z,96188.25
2023-02-22T12:53:44.810Z,96181.09
2023-02-22T12:56:24.817Z,96174.84
2023-02-22T12:59:02.793Z,96192.06
2023-02-22T13:01:38.554Z,96188.66
2023-02-22T13:04:20.170Z,96176.94
2023-02-22T13:07:02.988Z,96187.78
2023-02-22T13:10:12.321Z,96180.47
2023-02-22T13:12:53.882Z,96176.22
2023-02-22T13:15:29.589Z,96177.34
2023-02-22T13:18:11.253Z,96179.50
2023-02-22T13:20:47.946Z,96175.50
2023-02-22T13:23:31.226Z,96178.88
2023-02-22T13:26:11.132Z,96170.66
2023-02-22T13:28:46.451Z,96172.75
2023-02-22T13:31:36.799Z,96172.69
2023-02-22T13:34:37.012Z,96166.53
2023-02-22T13:37:50.812Z,96170.22
2023-02-22T13:40:57.304Z,96167.81
2023-02-22T13:43:47.797Z,96162.53
2023-02-22T13:46:56.950Z,96169.19
2023-02-22T13:49:48.019Z,96168.94
2023-02-22T13:52:21.737Z,96166.53
2023-02-22T13:54:54.435Z,96167.88
2023-02-22T13:57:26.130Z,96172.88
2023-02-22T14:00:25.974Z,96172.81
2023-02-22T14:03:06.752Z,96168.38
2023-02-22T14:05:50.873Z,96167.25
2023-02-22T14:08:45.737Z,96164.59
2023-02-22T14:11:47.220Z,96169.13
2023-02-22T14:14:20.343Z,96169.66
2023-02-22T14:17:24.855Z,96168.00
2023-02-22T14:20:29.986Z,96159.19
2023-02-22T14:23:19.872Z,96164.06
2023-02-22T14:25:50.081Z,96154.19
2023-02-22T14:28:43.841Z,96159.44
2023-02-22T14:31:29.528Z,96162.38
2023-02-22T14:34:10.541Z,96160.84
2023-02-22T14:36:53.338Z,96163.44
2023-02-22T14:39:32.001Z,96162.38
2023-02-22T14:42:07.584Z,96162.91
2023-02-22T14:44:42.537Z,96159.19
2023-02-22T14:47:20.898Z,96162.56
2023-02-22T14:49:54.770Z,96164.97
2023-02-22T14:52:27.744Z,96163.13
2023-02-22T14:55:18.454Z,96164.75
2023-02-22T14:58:00.150Z,96160.72
2023-02-22T15:00:37.614Z,96160.16
2023-02-22T15:03:05.837Z,96156.72
2023-02-22T15:05:39.206Z,96157.47
2023-02-22T15:08:09.761Z,96155.28
2023-02-22T15:10:46.458Z,96157.47
2023-02-22T15:13:23.747Z,96153.75
2023-02-22T15:16:00.590Z,96155.03
2023-02-22T15:18:34.912Z,96151.34
2023-02-22T15:21:13.102Z,96154.50
2023-02-22T15:23:44.964Z,96153.44
2023-02-22T15:26:22.939Z,96152.56
2023-02-22T15:28:56.413Z,96156.34
2023-02-22T15:31:30.941Z,96155.53
2023-02-22T15:34:22.168Z,96159.41
2023-02-22T15:36:54.454Z,96157.47
2023-02-22T15:39:27.026Z,96157.34
2023-02-22T15:42:07.807Z,96161.53
2023-02-22T15:44:40.403Z,96161.81
2023-02-22T15:47:13.059Z,96154.34
2023-02-22T15:49:41.057Z,96154.00
2023-02-22T15:52:19.876Z,96161.13
2023-02-22T15:54:51.372Z,96163.78
2023-02-22T15:57:27.353Z,96164.81
2023-02-22T15:59:58.537Z,96171.41
2023-02-22T16:02:44.424Z,96167.13
2023-02-22T16:05:18.307Z,96167.66
2023-02-22T16:07:50.352Z,96169.72
2023-02-22T16:10:27.256Z,96164.91
2023-02-22T16:13:10.024Z,96167.00
2023-02-22T16:15:43.716Z,96171.19
2023-02-22T16:18:24.522Z,96180.47
2023-02-22T16:21:00.976Z,96169.56
2023-02-22T16:23:30.493Z,96175.91
2023-02-22T16:26:21.979Z,96171.91
2023-02-22T16:28:52.876Z,96173.13
2023-02-22T16:31:25.132Z,96176.00
2023-02-22T16:33:54.337Z,96177.19
2023-02-22T16:36:37.819Z,96179.28
2023-02-22T16:39:08.183Z,96177.56
2023-02-22T16:41:36.233Z,96174.38
2023-02-22T16:44:07.594Z,96183.59
2023-02-22T16:46:37.842Z,96172.44
2023-02-22T16:49:06.477Z,96182.34
2023-02-22T16:51:41.755Z,96179.16
2023-02-22T16:54:13.696Z,96179.88
2023-02-22T16:56:42.138Z,96178.75
2023-02-22T16:59:14.928Z,96185.91
2023-02-22T17:01:44.909Z,96185.00
2023-02-22T17:04:19.881Z,96189.63
2023-02-22T17:06:48.724Z,96187.94
2023-02-22T17:09:17.102Z,96188.19
2023-02-22T17:11:45.438Z,96193.13
2023-02-22T17:14:19.352Z,96192.00
2023-02-22T17:16:48.885Z,96189.81
2023-02-22T17:19:19.490Z,96189.50
2023-02-22T17:21:47.841Z,96190.44
2023-02-22T17:24:18.415Z,96204.94
2023-02-22T17:26:46.511Z,96196.34
2023-02-22T17:29:15.275Z,96208.09
2023-02-22T17:31:43.617Z,96213.03
2023-02-22T17:34:13.164Z,96216.16
2023-02-22T17:36:42.001Z,96216.72
2023-02-22T17:39:10.946Z,96220.28
2023-02-22T17:41:40.701Z,96221.56
2023-02-22T17:44:09.503Z,96221.47
2023-02-22T17:46:37.692Z,96230.09
2023-02-22T17:49:05.790Z,96230.53
2023-02-22T17:51:35.416Z,96230.41
2023-02-22T17:54:03.411Z,96232.25
2023-02-22T17:56:31.473Z,96227.91
2023-02-22T17:58:59.694Z,96232.25
2023-02-22T18:01:31.042Z,96233.88
2023-02-22T18:04:02.820Z,96229.53
2023-02-22T18:06:32.962Z,96236.03
2023-02-22T18:09:10.056Z,96237.31
2023-02-22T18:11:40.423Z,96234.09
2023-02-22T18:14:10.735Z,96236.16
2023-02-22T18:16:39.374Z,96233.41
2023-02-22T18:19:07.475Z,96239.97
2023-02-22T18:21:35.531Z,96236.03
2023-02-22T18:24:05.580Z,96238.22
2023-02-22T18:26:34.406Z,96237.31
2023-02-22T18:29:02.580Z,96237.28
2023-02-22T18:31:30.650Z,96237.16
2023-02-22T18:33:58.925Z,96237.59
2023-02-22T18:36:26.976Z,96228.16
2023-02-22T18:38:56.285Z,96235.72
2023-02-22T18:41:26.241Z,96225.00
2023-02-22T18:43:58.439Z,96229.97
2023-02-22T18:46:27.680Z,96230.34
2023-02-22T18:48:57.639Z,96226.22
2023-02-22T18:51:27.134Z,96226.50
2023-02-22T18:54:00.251Z,96231.31
2023-02-22T18:56:31.360Z,96232.13
2023-02-22T18:59:02.214Z,96233.41
2023-02-22T19:01:35.616Z,96235.69
2023-02-22T19:04:03.672Z,96237.09
2023-02-22T19:06:34.862Z,96233.75
2023-02-22T19:09:04.626Z,96236.75
2023-02-22T19:11:33.997Z,96230.66
2023-02-22T19:14:03.981Z,96224.94
2023-02-22T19:16:32.564Z,96232.16
2023-02-22T19:19:01.905Z,96230.44
2023-02-22T19:21:33.477Z,96231.56
2023-02-22T19:24:01.661Z,96233.19
2023-02-22T19:26:30.705Z,96228.38
2023-02-22T19:29:05.286Z,96231.56
2023-02-22T19:31:34.481Z,96233.19
2023-02-22T19:34:05.094Z,96231.72
2023-02-22T19:36:34.095Z,96231.56
2023-02-22T19:39:02.462Z,96233.09
2023-02-22T19:41:30.944Z,96238.38
2023-02-22T19:44:02.631Z,96232.84
2023-02-22T19:46:31.982Z,96229.06
2023-02-22T19:49:00.218Z,96230.09
2023-02-22T19:51:30.965Z,96229.38
2023-02-22T19:54:02.359Z,96235.38
2023-02-22T19:56:32.151Z,96231.81
2023-02-22T19:59:09.388Z,96227.34
2023-02-22T20:01:38.487Z,96226.41
2023-02-22T20:04:11.947Z,96229.16
2023-02-22T20:06:42.210Z,96231.91
2023-02-22T20:09:13.462Z,96235.59
2023-02-22T20:11:41.534Z,96228.91
2023-02-22T20:14:16.564Z,96224.69
2023-02-22T20:16:44.714Z,96236.72
2023-02-22T20:19:13.523Z,96232.38
2023-02-22T20:21:41.867Z,96233.75
2023-02-22T20:24:14.928Z,96236.00
2023-02-22T20:26:43.842Z,96239.34
2023-02-22T20:29:14.065Z,96237.38
2023-02-22T20:31:43.966Z,96241.25
2023-02-22T20:34:12.805Z,96244.78
2023-02-22T20:36:43.540Z,96241.56
2023-02-22T20:39:14.913Z,96242.03
2023-02-22T20:41:46.233Z,96237.47
2023-02-22T20:44:18.254Z,96241.53
2023-02-22T20:46:47.644Z,96252.66
2023-02-22T20:49:17.920Z,96238.53
2023-02-22T20:51:47.161Z,96241.09
2023-02-22T20:54:16.100Z,96242.34
2023-02-22T20:56:45.991Z,96240.28
2023-02-22T20:59:18.452Z,96244.28
2023-02-22T21:01:48.028Z,96241.94
2023-02-22T21:04:23.172Z,96243.41
2023-02-22T21:06:51.959Z,96244.38
2023-02-22T21:09:22.482Z,96240.97
2023-02-22T21:11:51.509Z,96245.94
2023-02-22T21:14:20.899Z,96240.09
2023-02-22T21:16:52.316Z,96231.72
2023-02-22T21:19:25.256Z,96241.69
2023-02-22T21:22:01.972Z,96247.41
2023-02-22T21:24:31.603Z,96246.91
2023-02-22T21:27:00.125Z,96249.31
2023-02-22T21:29:30.087Z,96257.31
2023-02-22T21:31:58.587Z,96249.50
2023-02-22T21:34:26.712Z,96254.25
2023-02-22T21:36:55.187Z,96248.63
2023-02-22T21:39:28.112Z,96253.75
2023-02-22T21:42:00.027Z,96253.03
2023-02-22T21:44:31.011Z,96255.28
2023-02-22T21:46:59.054Z,96258.94
2023-02-22T21:49:27.181Z,96248.19
2023-02-22T21:51:56.403Z,96251.41
2023-02-22T21:54:24.857Z,96256.69
2023-02-22T21:56:54.360Z,96251.13
2023-02-22T21:59:23.783Z,96246.28
2023-02-22T22:01:56.426Z,96256.38
2023-02-22T22:04:29.469Z,96250.91
2023-02-22T22:07:00.078Z,96250.25
2023-02-22T22:09:32.801Z,96249.00
2023-02-22T22:12:05.070Z,96243.66
2023-02-22T22:14:35.469Z,96237.88
2023-02-22T22:17:07.799Z,96233.59
2023-02-22T22:19:40.442Z,96228.66
2023-02-22T22:22:09.131Z,96233.84
2023-02-22T22:24:37.952Z,96239.56
2023-02-22T22:27:09.644Z,96229.69
2023-02-22T22:29:37.676Z,96239.06
2023-02-22T22:32:07.499Z,96233.41
2023-02-22T22:34:37.776Z,96238.16
2023-02-22T22:37:05.989Z,96240.16
2023-02-22T22:39:33.979Z,96236.34
2023-02-22T22:42:02.021Z,96234.00
2023-02-22T22:44:32.682Z,96239.63
2023-02-22T22:47:00.958Z,96240.88
2023-02-22T22:49:32.526Z,96238.09
2023-02-22T22:52:00.563Z,96233.78
2023-02-22T22:54:28.887Z,96240.44
2023-02-22T22:56:56.897Z,96238.31
2023-02-22T22:59:24.936Z,96226.91
2023-02-22T23:01:52.920Z,96225.69
2023-02-22T23:04:24.077Z,96228.06
2023-02-22T23:06:55.355Z,96231.66
2023-02-22T23:09:26.501Z,96231.66
2023-02-22T23:12:01.822Z,96240.94
2023-02-22T23:14:31.121Z,96239.56
2023-02-22T23:17:03.282Z,96238.91
2023-02-22T23:19:32.372Z,96234.66
2023-02-22T23:22:05.146Z,96237.09
2023-02-22T23:24:36.052Z,96233.63
2023-02-22T23:27:07.218Z,96237.88
2023-02-22T23:29:39.309Z,96232.75
2023-02-22T23:32:08.835Z,96231.44
2023-02-22T23:34:40.917Z,96231.94
2023-02-22T23:37:13.497Z,96227.56
2023-02-22T23:39:41.614Z,96225.72
2023-02-22T23:42:09.646Z,96238.31
2023-02-22T23:44:39.714Z,96235.66
2023-02-22T23:47:07.724Z,96235.47
2023-02-22T23:49:38.204Z,96230.19
2023-02-22T23:52:08.832Z,96245.22
2023-02-22T23:54:43.842Z,96235.97
2023-02-22T23:57:12.181Z,96233.03
2023-02-22T23:59:40.732Z,96229.97
